Time;durP1;ratioP1;P1;durP2;ratioP2;P2;SDS_P1;SDS_P2;PMS_P1;PMS_P2;Temp;Humidity;BMP_temperature;BMP_pressure;BME280_temperature;BME280_humidity;BME280_pressure;Samples;Min_cycle;Max_cycle;Signal;HPM_P1;HPM_P2
2022/12/08 00:01:37;;;;;;;19.50;11.15;;;;;;;1.11;86.66;99789.63;10431412;28;20048;-79
2022/12/08 00:12:08;;;;;;;30.58;16.83;;;;;;;1.52;85.68;99786.63;10451073;28;20046;-80
2022/12/08 00:17:13;;;;;;;28.35;16.15;;;;;;;1.16;87.61;99769.06;10434227;28;20041;-79
2022/12/08 00:22:17;;;;;;;25.85;14.88;;;;;;;1.34;86.11;99777.84;10431138;28;20048;-78
2022/12/08 00:27:20;;;;;;;24.42;12.85;;;;;;;1.15;86.49;99770.00;10449290;28;20045;-79
2022/12/08 00:32:23;;;;;;;28.63;15.73;;;;;;;1.46;84.87;99771.91;10422093;28;20082;-79
2022/12/08 00:37:27;;;;;;;17.45;9.32;;;;;;;0.96;86.56;99763.03;10429927;28;20034;-79
2022/12/08 00:42:30;;;;;;;26.13;18.35;;;;;;;1.10;87.46;99772.91;10432564;28;20049;-79
2022/12/08 00:47:32;;;;;;;23.13;12.30;;;;;;;1.26;85.31;99772.94;10434887;28;20041;-79
2022/12/08 00:52:37;;;;;;;24.13;15.35;;;;;;;1.29;85.85;99764.88;10433679;28;20038;-79
2022/12/08 00:57:39;;;;;;;20.85;13.63;;;;;;;1.09;86.08;99759.75;10433347;28;20056;-79
2022/12/08 01:02:42;;;;;;;25.73;15.23;;;;;;;1.30;85.65;99758.63;10442192;28;20045;-80
2022/12/08 01:07:47;;;;;;;33.78;17.48;;;;;;;1.18;86.74;99765.41;10432809;28;20037;-80
2022/12/08 01:12:50;;;;;;;33.15;19.30;;;;;;;1.27;86.29;99753.50;10433819;28;20049;-79
2022/12/08 01:17:53;;;;;;;38.40;21.30;;;;;;;1.38;85.84;99756.44;10438235;28;20037;-79
2022/12/08 01:22:57;;;;;;;27.35;14.88;;;;;;;1.30;85.76;99763.06;10436861;28;20042;-79
2022/12/08 01:28:00;;;;;;;33.72;20.35;;;;;;;1.36;85.68;99758.28;10455578;28;20068;-79
2022/12/08 01:33:03;;;;;;;17.70;10.55;;;;;;;1.27;85.65;99769.38;10440104;28;20049;-80
2022/12/08 01:38:08;;;;;;;36.30;18.67;;;;;;;1.18;86.73;99761.91;10445937;28;20380;-80
2022/12/08 01:43:15;;;;;;;30.55;18.40;;;;;;;1.40;85.40;99764.28;10446333;28;20101;-80
2022/12/08 01:48:23;;;;;;;24.20;13.05;;;;;;;1.45;85.43;99757.81;10446508;28;20041;-80
2022/12/08 01:53:32;;;;;;;31.10;17.15;;;;;;;1.62;85.06;99763.97;10441008;28;20049;-79
2022/12/08 01:58:39;;;;;;;29.50;14.48;;;;;;;1.76;84.66;99750.88;10451110;28;20053;-80
2022/12/08 02:03:47;;;;;;;31.92;18.50;;;;;;;1.80;83.81;99754.19;10428863;28;20104;-78
2022/12/08 02:08:53;;;;;;;34.08;17.02;;;;;;;1.89;84.12;99749.28;10416838;28;20045;-78
2022/12/08 02:13:58;;;;;;;37.13;18.60;;;;;;;1.89;83.43;99728.06;10423746;28;20112;-79
2022/12/08 02:19:20;;;;;;;33.33;15.88;;;;;;;1.74;84.02;99731.56;10440078;28;20046;-79
2022/12/08 02:24:38;;;;;;;29.27;17.83;;;;;;;1.69;83.74;99725.66;10418276;28;20050;-79
2022/12/08 02:30:07;;;;;;;31.05;17.92;;;;;;;1.79;84.25;99718.06;10437841;28;20099;-78
2022/12/08 02:35:14;;;;;;;19.50;11.90;;;;;;;1.83;83.51;99709.84;10436178;28;20132;-79
2022/12/08 02:40:24;;;;;;;26.33;14.05;;;;;;;1.68;84.08;99702.78;10438185;28;20406;-78
2022/12/08 02:45:31;;;;;;;25.33;15.95;;;;;;;1.90;82.91;99710.38;10439850;28;20444;-79
2022/12/08 02:50:35;;;;;;;22.50;12.95;;;;;;;1.55;84.53;99707.88;10430827;28;20660;-79
2022/12/08 02:55:49;;;;;;;30.02;16.58;;;;;;;1.76;84.05;99691.78;10418555;28;20069;-79
2022/12/08 03:01:08;;;;;;;26.33;12.82;;;;;;;1.35;84.15;99679.00;10421015;28;20048;-79
2022/12/08 03:06:22;;;;;;;28.50;17.13;;;;;;;1.91;82.77;99673.19;10422638;28;20044;-79
2022/12/08 03:11:33;;;;;;;26.98;13.75;;;;;;;1.78;83.05;99690.72;10437442;28;20049;-79
2022/12/08 03:16:40;;;;;;;26.90;17.23;;;;;;;2.06;82.20;99663.53;10422254;28;20057;-79
2022/12/08 03:21:48;;;;;;;26.45;16.73;;;;;;;1.83;82.92;99656.88;10441814;28;20056;-79
2022/12/08 03:26:57;;;;;;;20.30;12.00;;;;;;;1.63;83.01;99652.72;10441264;28;20068;-79
2022/12/08 03:32:11;;;;;;;18.25;12.15;;;;;;;1.82;82.31;99641.09;10437016;28;20145;-80
2022/12/08 03:37:15;;;;;;;22.98;13.25;;;;;;;1.67;82.76;99642.78;10441444;28;20049;-81
2022/12/08 03:42:18;;;;;;;24.20;14.65;;;;;;;1.86;82.20;99626.72;10407906;28;20073;-80
2022/12/08 03:47:21;;;;;;;24.85;15.38;;;;;;;2.14;81.09;99612.78;10431463;28;20052;-80
2022/12/08 03:52:25;;;;;;;23.92;11.65;;;;;;;1.62;82.75;99607.78;10428973;28;20057;-80
2022/12/08 03:57:28;;;;;;;24.77;13.88;;;;;;;1.78;81.79;99602.47;10428760;28;20041;-80
2022/12/08 04:02:31;;;;;;;29.45;18.48;;;;;;;2.01;81.77;99601.19;10410624;28;20072;-80
2022/12/08 04:07:35;;;;;;;25.65;13.35;;;;;;;1.68;83.11;99605.66;10428510;28;20057;-80
2022/12/08 04:12:38;;;;;;;23.60;14.32;;;;;;;1.41;84.29;99607.22;10410074;28;20426;-80
2022/12/08 04:17:41;;;;;;;26.55;12.05;;;;;;;1.27;85.91;99603.53;10410755;28;20091;-80
2022/12/08 04:22:45;;;;;;;22.45;14.02;;;;;;;1.44;85.73;99584.06;10429194;28;20037;-78
2022/12/08 04:27:48;;;;;;;29.23;17.48;;;;;;;1.36;86.61;99586.28;10427225;28;20152;-78
2022/12/08 04:32:51;;;;;;;27.17;16.33;;;;;;;1.43;86.87;99584.16;10439208;28;20033;-80
2022/12/08 04:37:55;;;;;;;32.55;21.08;;;;;;;1.54;87.02;99578.25;10450656;28;20057;-79
2022/12/08 04:42:58;;;;;;;38.58;22.55;;;;;;;1.76;85.80;99575.25;10424171;28;20053;-78
2022/12/08 04:48:01;;;;;;;42.03;23.45;;;;;;;1.86;85.87;99571.97;10414079;28;20057;-80
2022/12/08 04:53:05;;;;;;;41.35;22.20;;;;;;;1.77;86.14;99576.94;10458515;28;20049;-79
2022/12/08 04:58:11;;;;;;;39.67;22.35;;;;;;;1.38;87.49;99573.81;10433582;28;20049;-80
2022/12/08 05:03:14;;;;;;;41.25;25.13;;;;;;;1.44;88.45;99560.25;10428452;28;20046;-78
2022/12/08 05:08:19;;;;;;;32.33;20.58;;;;;;;1.53;87.71;99555.38;10415570;28;20056;-80
2022/12/08 05:13:22;;;;;;;35.42;19.10;;;;;;;1.55;88.33;99562.28;10439201;28;20056;-80
2022/12/08 05:18:24;;;;;;;38.20;20.23;;;;;;;1.32;89.64;99560.06;10421425;28;20049;-80
2022/12/08 05:23:29;;;;;;;35.47;19.55;;;;;;;1.52;88.78;99556.31;10451349;28;20034;-81
2022/12/08 05:28:32;;;;;;;25.25;13.20;;;;;;;1.24;89.88;99555.22;10424526;28;20072;-80
2022/12/08 05:33:44;;;;;;;33.28;18.30;;;;;;;1.19;90.44;99563.41;10438257;28;20056;-81
2022/12/08 05:38:49;;;;;;;29.95;17.33;;;;;;;1.29;89.67;99534.66;10439109;28;20150;-80
2022/12/08 05:43:52;;;;;;;18.42;10.40;;;;;;;1.27;89.01;99533.88;10438474;28;20045;-81
2022/12/08 05:48:55;;;;;;;21.40;12.75;;;;;;;1.23;89.54;99533.19;10436401;28;20045;-81
2022/12/08 05:54:00;;;;;;;23.27;12.77;;;;;;;1.20;89.13;99543.94;10434783;28;20049;-81
2022/12/08 05:59:05;;;;;;;21.48;12.20;;;;;;;1.41;88.28;99533.09;10433671;28;20280;-81
2022/12/08 06:04:09;;;;;;;28.83;16.92;;;;;;;1.61;87.99;99529.31;10425698;28;20414;-79
2022/12/08 06:09:13;;;;;;;26.08;15.73;;;;;;;1.53;87.35;99528.91;10433833;28;20056;-81
2022/12/08 06:14:15;;;;;;;17.83;11.32;;;;;;;1.41;87.68;99527.81;10438601;28;20069;-80
2022/12/08 06:19:18;;;;;;;18.58;10.35;;;;;;;1.35;88.65;99520.22;10439047;28;20124;-80
2022/12/08 06:24:23;;;;;;;26.02;15.00;;;;;;;1.43;88.39;99516.22;10441261;28;20049;-80
2022/12/08 06:29:25;;;;;;;20.27;11.98;;;;;;;1.42;87.83;99514.47;10439233;28;20042;-79
2022/12/08 06:34:28;;;;;;;30.77;16.42;;;;;;;1.49;87.97;99517.66;10480352;28;20053;-80
2022/12/08 06:39:32;;;;;;;32.00;18.45;;;;;;;1.47;88.02;99512.44;10472099;28;20051;-80
2022/12/08 06:44:35;;;;;;;30.65;17.13;;;;;;;1.19;89.05;99515.78;10452604;28;20087;-81
2022/12/08 06:49:38;;;;;;;30.33;15.55;;;;;;;1.40;89.08;99519.03;10458342;28;20052;-80
2022/12/08 06:54:42;;;;;;;29.58;17.25;;;;;;;1.56;88.28;99515.47;10454894;28;20056;-81
2022/12/08 06:59:45;;;;;;;24.90;13.80;;;;;;;1.46;88.63;99515.19;10474010;28;20044;-79
2022/12/08 07:04:48;;;;;;;35.88;19.10;;;;;;;1.76;87.80;99515.19;10487338;28;20055;-81
2022/12/08 07:09:52;;;;;;;35.10;21.05;;;;;;;1.50;89.11;99529.94;10483256;28;20045;-80
2022/12/08 07:14:55;;;;;;;36.78;20.90;;;;;;;1.91;87.12;99527.53;10477085;28;20045;-80
2022/12/08 07:19:58;;;;;;;40.67;22.13;;;;;;;1.65;87.81;99526.41;10475786;28;20425;-79
2022/12/08 07:25:02;;;;;;;32.67;17.48;;;;;;;1.82;87.51;99535.19;10475825;28;20041;-80
2022/12/08 07:30:06;;;;;;;33.40;18.60;;;;;;;1.68;88.07;99536.81;10481982;28;20119;-79
2022/12/08 07:35:10;;;;;;;38.63;19.05;;;;;;;1.72;88.67;99532.19;10494886;28;20040;-81
2022/12/08 07:40:15;;;;;;;35.15;20.63;;;;;;;1.76;88.27;99539.03;10474743;28;20045;-81
2022/12/08 07:45:18;;;;;;;30.83;16.90;;;;;;;1.61;88.52;99530.16;10470274;28;20053;-81
2022/12/08 07:50:20;;;;;;;25.00;11.07;;;;;;;1.47;87.68;99541.53;10468390;28;20043;-80
2022/12/08 07:55:25;;;;;;;27.00;14.73;;;;;;;1.46;88.64;99539.00;10459185;28;20056;-81
2022/12/08 08:00:28;;;;;;;31.00;15.60;;;;;;;1.81;87.07;99538.75;10462227;28;20083;-80
2022/12/08 08:05:31;;;;;;;26.80;14.88;;;;;;;1.75;87.68;99539.97;10472871;28;20041;-81
2022/12/08 08:10:35;;;;;;;27.30;13.43;;;;;;;1.69;87.15;99530.56;10473686;28;20045;-81
2022/12/08 08:15:38;;;;;;;22.70;12.35;;;;;;;1.44;88.96;99532.94;10469780;28;20056;-81
2022/12/08 08:20:41;;;;;;;24.50;13.73;;;;;;;1.60;88.45;99538.22;10461929;28;20045;-81
2022/12/08 08:25:45;;;;;;;26.25;14.13;;;;;;;1.59;88.51;99539.13;10440342;28;20116;-81
2022/12/08 08:30:49;;;;;;;29.45;16.38;;;;;;;1.80;88.22;99532.59;10432854;28;20052;-81
2022/12/08 08:35:52;;;;;;;22.48;11.07;;;;;;;1.85;87.66;99546.44;10457828;28;20044;-81
2022/12/08 08:40:56;;;;;;;29.58;14.60;;;;;;;1.64;87.97;99542.38;10471864;28;20029;-81
2022/12/08 08:46:00;;;;;;;26.17;14.25;;;;;;;1.91;87.86;99545.22;10477617;28;20049;-82
2022/12/08 08:51:07;;;;;;;28.65;15.90;;;;;;;1.99;87.76;99550.06;10469348;28;20500;-81
2022/12/08 08:56:14;;;;;;;26.15;14.27;;;;;;;1.97;87.57;99536.91;10451473;28;20041;-81
2022/12/08 09:01:18;;;;;;;22.77;12.35;;;;;;;1.90;87.96;99549.66;10458438;28;20465;-81
2022/12/08 09:06:22;;;;;;;26.85;14.65;;;;;;;1.95;87.47;99546.75;10464501;28;20056;-81
2022/12/08 09:11:27;;;;;;;23.55;13.73;;;;;;;1.91;88.21;99551.38;10463974;28;20029;-81
2022/12/08 09:16:30;;;;;;;26.63;14.80;;;;;;;1.92;87.25;99547.78;10424628;28;20076;-81
2022/12/08 09:21:33;;;;;;;21.63;12.80;;;;;;;1.89;87.59;99563.88;10439954;28;20045;-81
2022/12/08 09:26:37;;;;;;;21.20;12.00;;;;;;;2.00;87.64;99555.25;10440417;28;20067;-81
2022/12/08 09:31:40;;;;;;;23.38;14.55;;;;;;;2.05;87.46;99566.44;10458621;28;20073;-81
2022/12/08 09:36:44;;;;;;;22.35;11.30;;;;;;;1.87;87.38;99572.84;10432264;22;20058;-81
2022/12/08 09:41:52;;;;;;;23.55;13.45;;;;;;;1.89;87.49;99574.47;10418954;28;20049;-80
2022/12/08 09:46:58;;;;;;;23.42;12.80;;;;;;;1.55;89.24;99564.94;10456242;28;20045;-82
2022/12/08 09:52:03;;;;;;;25.15;14.10;;;;;;;1.89;87.79;99569.16;10432564;28;20053;-80
2022/12/08 09:57:14;;;;;;;23.10;12.68;;;;;;;2.09;87.83;99559.19;10442626;28;20045;-80
2022/12/08 10:02:22;;;;;;;20.65;12.50;;;;;;;1.97;87.71;99566.03;10427345;28;20042;-81
2022/12/08 10:07:37;;;;;;;19.30;11.05;;;;;;;2.16;87.75;99553.41;10414845;28;20494;-82
2022/12/08 10:12:47;;;;;;;20.67;11.95;;;;;;;2.05;87.93;99568.25;10403972;28;20108;-80
2022/12/08 10:17:52;;;;;;;21.10;12.07;;;;;;;1.91;87.77;99559.31;10406698;28;20081;-82
2022/12/08 10:23:05;;;;;;;22.05;12.02;;;;;;;2.35;86.08;99553.16;10416671;28;20045;-81
2022/12/08 10:28:09;;;;;;;20.88;12.32;;;;;;;2.26;86.30;99555.53;10403811;28;20053;-81
2022/12/08 10:33:15;;;;;;;24.67;13.35;;;;;;;2.32;86.57;99541.91;10408845;28;20053;-82
2022/12/08 10:38:25;;;;;;;21.38;13.80;;;;;;;2.36;86.13;99546.09;10452360;28;20041;-82
2022/12/08 10:43:31;;;;;;;20.65;11.68;;;;;;;2.31;85.91;99546.38;10437353;28;20441;-82
2022/12/08 10:48:34;;;;;;;18.75;10.55;;;;;;;2.53;85.64;99539.78;10434458;28;20041;-81
2022/12/08 10:53:46;;;;;;;11.27;7.30;;;;;;;2.02;85.33;99537.50;10450206;28;20064;-80
2022/12/08 10:59:04;;;;;;;14.98;9.02;;;;;;;2.32;85.38;99531.31;10452322;28;20052;-82
2022/12/08 11:04:13;;;;;;;12.15;7.57;;;;;;;2.53;84.19;99529.16;10478140;28;20049;-80
2022/12/08 11:09:26;;;;;;;12.23;7.75;;;;;;;2.22;84.81;99527.50;10495666;28;20091;-79
2022/12/08 11:14:32;;;;;;;9.75;6.28;;;;;;;2.03;84.56;99539.22;10479789;28;20056;-82
2022/12/08 11:19:37;;;;;;;12.35;8.00;;;;;;;2.37;84.13;99537.19;10448092;28;20045;-80
2022/12/08 11:24:40;;;;;;;9.48;6.35;;;;;;;2.37;82.99;99531.88;10449679;28;20036;-82
2022/12/08 11:29:46;;;;;;;11.95;7.07;;;;;;;2.48;83.55;99529.44;10455795;28;20047;-80
2022/12/08 11:34:53;;;;;;;8.00;5.13;;;;;;;1.93;84.36;99528.28;10455819;28;20044;-80
2022/12/08 11:40:03;;;;;;;7.13;4.85;;;;;;;1.76;84.57;99527.59;10465508;28;20041;-81
2022/12/08 11:45:17;;;;;;;7.57;4.75;;;;;;;1.97;84.05;99520.16;10457728;28;20041;-81
2022/12/08 11:50:25;;;;;;;9.70;6.38;;;;;;;2.32;83.77;99521.56;10451917;28;20095;-80
2022/12/08 11:55:32;;;;;;;14.07;7.53;;;;;;;2.54;83.85;99518.47;10462061;28;20068;-80
2022/12/08 12:00:42;;;;;;;13.38;8.02;;;;;;;2.64;82.91;99513.47;10464410;28;20037;-81
2022/12/08 12:05:59;;;;;;;14.07;8.25;;;;;;;2.87;82.76;99514.69;10445276;28;20049;-80
2022/12/08 12:17:05;;;;;;;12.60;8.75;;;;;;;2.95;82.48;99515.06;10456018;28;20072;-79
2022/12/08 12:22:15;;;;;;;8.68;6.30;;;;;;;2.89;82.69;99517.25;10457108;28;20395;-80
2022/12/08 12:27:27;;;;;;;11.05;7.30;;;;;;;2.86;82.91;99514.78;10433907;28;20079;-80
2022/12/08 12:32:45;;;;;;;10.55;7.22;;;;;;;2.97;83.09;99510.50;10459673;28;20049;-80
2022/12/08 12:37:48;;;;;;;10.00;5.85;;;;;;;2.69;82.43;99510.53;10441766;28;20064;-80
2022/12/08 12:43:13;;;;;;;8.40;6.10;;;;;;;2.75;82.07;99513.66;10448401;28;20083;-80
2022/12/08 12:48:27;;;;;;;8.05;5.80;;;;;;;2.51;81.62;99515.13;10431136;28;20069;-80
2022/12/08 12:53:50;;;;;;;9.13;5.53;;;;;;;2.46;82.00;99519.88;10448175;28;20041;-80
2022/12/08 12:58:54;;;;;;;9.82;5.78;;;;;;;2.54;81.39;99517.63;10459167;28;20132;-80
2022/12/08 13:04:07;;;;;;;9.38;5.85;;;;;;;2.22;82.37;99517.75;10458241;28;20469;-79
2022/12/08 13:09:21;;;;;;;5.80;4.40;;;;;;;2.42;81.41;99513.06;10466463;28;20064;-79
2022/12/08 13:14:29;;;;;;;7.10;4.65;;;;;;;2.29;80.81;99511.16;10473172;28;20069;-78
2022/12/08 13:19:37;;;;;;;7.57;4.30;;;;;;;2.42;81.11;99518.38;10473626;28;20041;-79
2022/12/08 13:24:39;;;;;;;9.15;4.65;;;;;;;2.46;80.90;99512.75;10466957;28;20119;-79
2022/12/08 13:29:42;;;;;;;7.32;4.70;;;;;;;2.68;80.04;99508.81;10451524;28;20548;-80
2022/12/08 13:34:51;;;;;;;6.57;4.55;;;;;;;2.67;79.77;99510.63;10466201;28;20083;-80
2022/12/08 13:39:59;;;;;;;6.95;4.45;;;;;;;2.66;79.32;99518.66;10458993;28;20083;-80
2022/12/08 13:45:05;;;;;;;7.10;5.10;;;;;;;2.60;79.53;99507.50;10456788;28;20076;-80
2022/12/08 13:50:35;;;;;;;9.15;6.07;;;;;;;2.77;79.33;99503.81;10447699;28;20528;-79
2022/12/08 13:56:00;;;;;;;7.57;5.90;;;;;;;2.68;79.23;99509.66;10464130;28;20140;-79
2022/12/08 14:01:24;;;;;;;7.80;4.63;;;;;;;2.78;78.91;99523.22;10423972;28;20045;-80
2022/12/08 14:06:31;;;;;;;9.73;6.30;;;;;;;2.52;79.39;99515.03;10449372;28;20052;-81
2022/12/08 14:11:37;;;;;;;9.80;6.50;;;;;;;2.55;79.93;99524.63;10464409;28;20544;-80
2022/12/08 14:16:41;;;;;;;10.77;6.07;;;;;;;2.61;79.76;99530.44;10453487;28;20036;-80
2022/12/08 14:22:09;;;;;;;12.50;6.53;;;;;;;2.57;79.97;99520.94;10434293;28;20163;-81
2022/12/08 14:27:15;;;;;;;10.65;7.20;;;;;;;2.48;79.82;99525.94;10439613;28;20045;-81
2022/12/08 14:32:38;;;;;;;14.05;7.03;;;;;;;2.46;80.08;99526.03;10458624;28;20124;-81
2022/12/08 14:37:44;;;;;;;9.02;6.45;;;;;;;2.58;79.76;99517.38;10425180;28;20040;-80
2022/12/08 14:42:50;;;;;;;9.88;6.20;;;;;;;2.52;79.89;99522.97;10463965;28;20352;-80
2022/12/08 14:47:53;;;;;;;10.70;6.88;;;;;;;2.48;79.93;99521.47;10463748;28;20041;-80
2022/12/08 14:52:58;;;;;;;9.27;6.10;;;;;;;2.37;80.19;99534.53;10447679;28;20163;-82
2022/12/08 14:58:01;;;;;;;9.40;5.90;;;;;;;2.11;81.01;99528.13;10454307;28;20133;-81
2022/12/08 15:03:06;;;;;;;10.93;6.22;;;;;;;2.28;80.51;99535.09;10443471;28;20037;-80
2022/12/08 15:08:11;;;;;;;7.22;5.05;;;;;;;2.12;80.43;99535.16;10475402;28;20049;-81
2022/12/08 15:13:22;;;;;;;9.05;6.95;;;;;;;2.21;80.52;99529.31;10465987;28;20037;-81
2022/12/08 15:18:34;;;;;;;10.02;5.90;;;;;;;2.10;80.65;99539.69;10469984;28;20509;-80
2022/12/08 15:23:43;;;;;;;8.63;5.38;;;;;;;1.99;80.58;99526.22;10466114;28;20044;-80
2022/12/08 15:28:47;;;;;;;9.95;6.18;;;;;;;2.02;80.67;99532.19;10439428;28;20045;-80
2022/12/08 15:33:50;;;;;;;11.50;6.38;;;;;;;2.04;80.63;99537.41;10461940;28;20049;-80
2022/12/08 15:38:54;;;;;;;10.13;6.80;;;;;;;2.01;80.65;99532.31;10485509;23;20075;-78
2022/12/08 15:44:01;;;;;;;10.02;6.43;;;;;;;2.00;80.65;99549.13;10504995;28;20509;-78
2022/12/08 15:49:04;;;;;;;9.10;5.95;;;;;;;1.94;80.65;99550.34;10493787;28;20110;-78
2022/12/08 15:54:08;;;;;;;10.50;6.28;;;;;;;1.86;81.03;99549.94;10484162;28;20514;-78
2022/12/08 15:59:16;;;;;;;9.05;5.65;;;;;;;1.74;81.33;99548.84;10484643;28;20546;-79
2022/12/08 16:04:21;;;;;;;10.25;6.93;;;;;;;1.88;81.17;99543.59;10483744;28;20083;-78
2022/12/08 16:09:45;;;;;;;13.55;7.68;;;;;;;1.78;81.34;99545.06;10492623;28;20044;-79
2022/12/08 16:14:48;;;;;;;9.52;6.38;;;;;;;1.65;81.31;99544.94;10489834;28;20412;-77
2022/12/08 16:20:14;;;;;;;11.45;7.32;;;;;;;1.59;81.92;99553.25;10483815;28;20040;-79
2022/12/08 16:25:19;;;;;;;13.77;8.13;;;;;;;1.56;82.07;99556.03;10494395;28;20043;-79
2022/12/08 16:30:24;;;;;;;14.65;8.75;;;;;;;1.55;82.06;99557.00;10490883;28;20508;-79
2022/12/08 16:35:27;;;;;;;14.05;8.82;;;;;;;1.53;82.21;99556.22;10481259;28;20072;-77
2022/12/08 16:40:31;;;;;;;14.93;8.43;;;;;;;1.56;82.33;99566.63;10470881;28;20470;-78
2022/12/08 16:45:36;;;;;;;15.75;8.98;;;;;;;1.57;82.16;99575.44;10492031;28;20049;-80
2022/12/08 16:50:46;;;;;;;20.30;10.80;;;;;;;1.52;82.67;99575.69;10458349;28;20383;-78
2022/12/08 16:55:50;;;;;;;17.52;10.32;;;;;;;1.65;82.47;99566.13;10475376;28;20123;-79
2022/12/08 17:00:53;;;;;;;17.23;10.20;;;;;;;1.63;82.49;99568.00;10494866;28;20483;-80
2022/12/08 17:05:56;;;;;;;18.92;10.50;;;;;;;1.65;82.48;99570.56;10439186;28;20079;-78
2022/12/08 17:11:09;;;;;;;23.40;10.18;;;;;;;1.63;82.50;99568.00;10464423;28;20059;-78
2022/12/08 17:16:15;;;;;;;19.80;11.10;;;;;;;1.64;82.47;99572.34;10456844;28;20140;-80
2022/12/08 17:21:18;;;;;;;21.60;11.68;;;;;;;1.64;82.46;99568.84;10454991;28;20044;-78
2022/12/08 17:26:22;;;;;;;20.35;11.50;;;;;;;1.64;82.59;99576.78;10452195;28;20132;-80
2022/12/08 17:31:25;;;;;;;23.48;11.95;;;;;;;1.67;82.60;99579.25;10455883;28;20099;-79
2022/12/08 17:36:32;;;;;;;22.40;12.10;;;;;;;1.66;82.58;99572.28;10468060;28;20048;-77
2022/12/08 17:41:37;;;;;;;20.73;12.65;;;;;;;1.64;82.99;99584.72;10467290;28;20048;-78
2022/12/08 17:46:40;;;;;;;27.02;14.63;;;;;;;1.57;83.21;99581.59;10476109;28;20044;-78
2022/12/08 17:51:47;;;;;;;27.80;15.73;;;;;;;1.45;83.06;99590.19;10511700;28;20072;-75
2022/12/08 17:56:51;;;;;;;31.10;16.67;;;;;;;1.38;83.59;99592.34;10517981;28;20045;-79
2022/12/08 18:01:55;;;;;;;26.77;14.82;;;;;;;1.47;84.28;99593.63;10485629;28;20486;-79
2022/12/08 18:07:00;;;;;;;33.10;17.75;;;;;;;1.36;83.95;99581.00;10482071;28;20094;-79
2022/12/08 18:12:04;;;;;;;25.70;15.13;;;;;;;1.40;84.20;99593.13;10492305;28;20044;-80
2022/12/08 18:17:08;;;;;;;32.42;17.83;;;;;;;1.48;84.61;99592.69;10486813;28;20059;-77
2022/12/08 18:22:12;;;;;;;48.05;25.52;;;;;;;1.57;84.77;99593.97;10462786;28;20041;-80
2022/12/08 18:27:16;;;;;;;55.72;30.23;;;;;;;1.59;84.75;99586.78;10468283;28;20045;-79
2022/12/08 18:32:22;;;;;;;50.55;28.73;;;;;;;1.60;84.76;99575.28;10461597;28;20595;-79
2022/12/08 18:37:25;;;;;;;45.92;25.75;;;;;;;1.59;84.60;99586.78;10495540;28;20091;-78
2022/12/08 18:42:29;;;;;;;43.95;26.13;;;;;;;1.56;84.71;99584.31;10493477;28;20032;-79
2022/12/08 18:47:33;;;;;;;46.00;27.08;;;;;;;1.62;84.95;99578.66;10485133;28;20051;-77
2022/12/08 18:52:36;;;;;;;38.60;24.58;;;;;;;1.71;85.30;99591.41;10480574;28;20090;-78
2022/12/08 18:57:41;;;;;;;38.85;25.00;;;;;;;1.76;85.15;99586.69;10484178;28;20045;-79
2022/12/08 19:02:45;;;;;;;41.42;23.83;;;;;;;1.69;85.00;99582.69;10484387;28;20045;-78
2022/12/08 19:07:48;;;;;;;38.65;23.80;;;;;;;1.70;85.26;99587.03;10496117;28;20494;-78
2022/12/08 19:12:52;;;;;;;39.15;22.98;;;;;;;1.67;85.22;99593.38;10495721;28;20067;-78
2022/12/08 19:17:55;;;;;;;35.17;22.65;;;;;;;1.60;84.87;99601.75;10459313;28;20036;-79
2022/12/08 19:22:58;;;;;;;37.95;23.38;;;;;;;1.52;84.67;99606.63;10477859;28;20048;-78
2022/12/08 19:28:02;;;;;;;40.85;24.42;;;;;;;1.44;84.71;99609.69;10460741;28;20628;-78
2022/12/08 19:33:05;;;;;;;37.78;25.25;;;;;;;1.43;85.24;99613.28;10491786;28;20079;-78
2022/12/08 19:38:08;;;;;;;45.97;25.52;;;;;;;1.32;84.85;99611.22;10486980;28;20075;-77
2022/12/08 19:48:48;;;;;;;39.90;21.80;;;;;;;1.26;85.26;99601.84;10464056;28;20048;-76
2022/12/08 19:53:50;;;;;;;47.38;24.58;;;;;;;1.25;85.14;99593.97;10469973;28;20536;-79
2022/12/08 19:58:55;;;;;;;46.75;25.45;;;;;;;1.24;85.02;99587.81;10463067;28;20060;-77
2022/12/08 20:03:57;;;;;;;44.88;24.77;;;;;;;1.17;84.83;99594.38;10467262;28;20036;-79
2022/12/08 20:09:00;;;;;;;56.03;30.58;;;;;;;1.08;84.88;99591.41;10479443;28;20072;-77
2022/12/08 20:14:05;;;;;;;57.13;30.33;;;;;;;1.06;85.15;99597.59;10479490;28;20055;-78
2022/12/08 20:19:08;;;;;;;48.40;24.63;;;;;;;1.01;85.06;99604.94;10474368;28;20154;-78
2022/12/08 20:24:10;;;;;;;41.67;23.40;;;;;;;0.98;85.35;99601.59;10462071;28;20068;-75
2022/12/08 20:29:15;;;;;;;40.88;22.38;;;;;;;0.87;84.86;99596.88;10488018;28;20369;-76
2022/12/08 20:34:19;;;;;;;40.83;22.60;;;;;;;0.83;84.93;99611.22;10479046;28;20041;-79
2022/12/08 20:39:22;;;;;;;44.35;24.30;;;;;;;0.90;85.28;99619.66;10475416;28;20040;-76
2022/12/08 20:44:28;;;;;;;40.60;21.20;;;;;;;0.89;85.34;99618.81;10493941;28;20107;-78
2022/12/08 20:49:30;;;;;;;37.47;20.50;;;;;;;0.82;85.33;99626.25;10469502;28;20098;-78
2022/12/08 20:54:36;;;;;;;41.90;21.70;;;;;;;0.90;85.75;99624.97;10481436;28;20049;-78
2022/12/08 20:59:41;;;;;;;45.55;23.38;;;;;;;0.96;85.83;99635.22;10486659;28;20386;-77
2022/12/08 21:04:44;;;;;;;39.17;21.17;;;;;;;1.00;85.62;99620.91;10462741;28;20521;-78
2022/12/08 21:09:47;;;;;;;32.17;19.98;;;;;;;1.02;85.23;99626.97;10460313;28;20052;-79
2022/12/08 21:14:52;;;;;;;38.95;21.58;;;;;;;1.08;85.58;99625.78;10455401;28;20460;-78
2022/12/08 21:19:54;;;;;;;39.20;20.38;;;;;;;1.18;85.72;99629.63;10449847;28;20045;-77
2022/12/08 21:24:57;;;;;;;44.67;23.20;;;;;;;1.18;85.75;99624.31;10436117;28;20047;-78
2022/12/08 21:30:01;;;;;;;41.10;23.15;;;;;;;1.13;85.06;99629.03;10459039;28;20060;-76
2022/12/08 21:35:05;;;;;;;47.95;23.02;;;;;;;1.00;85.29;99624.38;10469674;28;20037;-76
2022/12/08 21:40:09;;;;;;;47.35;24.80;;;;;;;0.99;85.51;99624.50;10457850;28;20044;-79
2022/12/08 21:45:17;;;;;;;54.17;27.15;;;;;;;0.86;85.06;99620.78;10473113;23;20070;-74
2022/12/08 21:50:21;;;;;;;50.75;28.35;;;;;;;0.79;84.96;99618.44;10459998;28;20478;-74
2022/12/08 21:55:24;;;;;;;55.30;28.75;;;;;;;0.73;85.29;99620.56;10437649;28;20084;-74
2022/12/08 22:00:29;;;;;;;61.35;29.30;;;;;;;0.80;85.43;99620.16;10439886;28;20041;-74
2022/12/08 22:05:35;;;;;;;64.45;31.08;;;;;;;0.81;85.18;99615.72;10438709;28;20049;-75
2022/12/08 22:10:39;;;;;;;68.30;33.92;;;;;;;0.79;85.26;99618.44;10436938;28;20511;-74
2022/12/08 22:15:44;;;;;;;67.47;32.50;;;;;;;0.85;85.49;99625.22;10442534;28;20473;-74
2022/12/08 22:20:47;;;;;;;66.82;32.88;;;;;;;0.95;85.28;99623.78;10441549;28;20056;-74
2022/12/08 22:25:56;;;;;;;62.38;29.63;;;;;;;0.91;85.32;99622.25;10452723;28;20084;-74
2022/12/08 22:31:01;;;;;;;52.00;26.02;;;;;;;0.66;84.95;99619.16;10459560;28;20730;-74
2022/12/08 22:36:05;;;;;;;51.08;25.90;;;;;;;0.47;84.65;99606.09;10439178;28;20052;-74
2022/12/08 22:41:13;;;;;;;52.22;27.13;;;;;;;0.21;84.29;99602.13;10439882;28;20403;-74
2022/12/08 22:46:19;;;;;;;62.95;29.77;;;;;;;0.13;84.65;99599.84;10441745;28;20080;-74
2022/12/08 22:51:22;;;;;;;66.75;31.67;;;;;;;0.21;85.04;99600.31;10440769;28;20045;-73
2022/12/08 22:56:26;;;;;;;60.67;28.38;;;;;;;0.23;84.93;99605.53;10441441;28;20485;-74
2022/12/08 23:01:32;;;;;;;65.70;30.50;;;;;;;0.21;85.09;99608.25;10440163;28;20088;-74
2022/12/08 23:06:35;;;;;;;72.90;32.70;;;;;;;0.34;85.63;99601.41;10439531;28;20048;-74
2022/12/08 23:11:38;;;;;;;63.33;30.20;;;;;;;0.51;85.77;99608.47;10438830;28;20491;-74
2022/12/08 23:16:43;;;;;;;69.93;31.38;;;;;;;0.65;86.10;99604.25;10457136;28;20099;-74
2022/12/08 23:21:47;;;;;;;82.07;33.35;;;;;;;0.78;85.72;99610.59;10438218;28;20379;-74
2022/12/08 23:26:50;;;;;;;79.93;33.88;;;;;;;0.91;85.98;99609.03;10438840;28;20107;-74
2022/12/08 23:31:54;;;;;;;71.43;32.55;;;;;;;0.96;85.88;99604.34;10438341;28;20126;-74
2022/12/08 23:36:58;;;;;;;76.65;32.55;;;;;;;0.95;85.78;99609.72;10436041;28;20522;-74
2022/12/08 23:42:01;;;;;;;76.03;33.33;;;;;;;0.91;85.72;99605.53;10442618;28;20049;-74
2022/12/08 23:47:05;;;;;;;77.78;33.58;;;;;;;0.88;85.52;99593.31;10451488;28;20056;-74